createdAt,value
2022-08-30T00:00:00.058Z,10.90
2022-08-30T00:01:00.039Z,5.60
2022-08-30T00:02:00.039Z,5.90
2022-08-30T00:03:00.239Z,8.90
2022-08-30T00:04:00.060Z,6.60
2022-08-30T00:05:00.006Z,7.50
2022-08-30T00:05:59.988Z,6.80
2022-08-30T00:06:59.988Z,9.00
2022-08-30T00:07:59.989Z,8.30
2022-08-30T00:08:59.975Z,6.30
2022-08-30T00:09:59.953Z,7.30
2022-08-30T00:10:59.935Z,11.40
2022-08-30T00:11:59.921Z,7.60
2022-08-30T00:12:59.910Z,6.10
2022-08-30T00:13:59.930Z,7.80
2022-08-30T00:14:59.901Z,8.00
2022-08-30T00:15:59.934Z,9.40
2022-08-30T00:16:59.862Z,6.20
2022-08-30T00:17:59.871Z,6.30
2022-08-30T00:18:59.843Z,8.10
2022-08-30T00:19:59.835Z,8.40
2022-08-30T00:20:59.845Z,5.90
2022-08-30T00:21:59.803Z,7.80
2022-08-30T00:22:59.812Z,8.80
2022-08-30T00:23:59.793Z,7.20
2022-08-30T00:24:59.770Z,5.00
2022-08-30T00:25:59.765Z,8.40
2022-08-30T00:26:59.754Z,7.40
2022-08-30T00:27:59.754Z,8.60
2022-08-30T00:28:59.735Z,7.20
2022-08-30T00:29:59.723Z,7.40
2022-08-30T00:30:59.737Z,6.20
2022-08-30T00:31:59.714Z,8.20
2022-08-30T00:32:59.707Z,6.30
2022-08-30T00:33:59.678Z,7.70
2022-08-30T00:34:59.666Z,8.10
2022-08-30T00:35:59.658Z,6.40
2022-08-30T00:36:59.647Z,7.50
2022-08-30T00:37:59.639Z,6.80
2022-08-30T00:38:59.619Z,6.30
2022-08-30T00:39:59.670Z,6.40
2022-08-30T00:40:59.599Z,6.80
2022-08-30T00:41:59.610Z,5.90
2022-08-30T00:42:59.950Z,8.00
2022-08-30T00:44:00.896Z,7.20
2022-08-30T00:44:59.648Z,4.80
2022-08-30T00:45:59.604Z,6.60
2022-08-30T00:46:59.602Z,6.50
2022-08-30T00:47:59.609Z,6.20
2022-08-30T00:48:59.511Z,9.70
2022-08-30T00:49:59.502Z,5.50
2022-08-30T00:50:59.497Z,7.50
2022-08-30T00:51:59.491Z,6.20
2022-08-30T00:52:59.486Z,6.10
2022-08-30T00:53:59.492Z,11.70
2022-08-30T00:54:59.450Z,6.60
2022-08-30T00:55:59.465Z,5.80
2022-08-30T00:56:59.444Z,5.30
2022-08-30T00:57:59.426Z,6.60
2022-08-30T00:58:59.405Z,6.40
2022-08-30T00:59:59.401Z,5.50
2022-08-30T01:00:59.384Z,7.50
2022-08-30T01:01:59.424Z,7.60
2022-08-30T01:02:59.505Z,6.40
2022-08-30T01:03:59.353Z,7.00
2022-08-30T01:04:59.336Z,6.00
2022-08-30T01:05:59.334Z,5.20
2022-08-30T01:06:59.325Z,4.80
2022-08-30T01:07:59.316Z,8.00
2022-08-30T01:08:59.299Z,5.00
2022-08-30T01:09:59.288Z,4.90
2022-08-30T01:10:59.276Z,4.70
2022-08-30T01:11:59.307Z,5.20
2022-08-30T01:12:59.347Z,7.90
2022-08-30T01:13:59.250Z,9.70
2022-08-30T01:14:59.228Z,6.00
2022-08-30T01:15:59.237Z,5.10
2022-08-30T01:16:59.219Z,6.50
2022-08-30T01:17:59.200Z,6.10
2022-08-30T01:18:59.198Z,6.30
2022-08-30T01:19:59.189Z,5.10
2022-08-30T01:20:59.170Z,6.80
2022-08-30T01:21:59.171Z,6.80
2022-08-30T01:22:59.140Z,6.20
2022-08-30T01:23:59.141Z,6.00
2022-08-30T01:24:59.120Z,4.70
2022-08-30T01:25:59.112Z,6.30
2022-08-30T01:26:59.142Z,6.30
2022-08-30T01:27:59.083Z,6.50
2022-08-30T01:28:59.082Z,5.00
2022-08-30T01:29:59.074Z,5.60
2022-08-30T01:30:59.113Z,6.00
2022-08-30T01:31:59.069Z,6.00
2022-08-30T01:32:59.053Z,4.60
2022-08-30T01:33:59.024Z,6.20
2022-08-30T01:34:59.028Z,5.60
2022-08-30T01:35:59.004Z,6.10
2022-08-30T01:36:59.004Z,6.00
2022-08-30T01:37:58.985Z,8.60
2022-08-30T01:38:58.981Z,7.90
2022-08-30T01:39:59.014Z,6.70
2022-08-30T01:40:58.955Z,10.20
2022-08-30T01:41:58.946Z,6.20
2022-08-30T01:42:58.927Z,8.60
2022-08-30T01:43:58.916Z,7.30
2022-08-30T01:44:58.907Z,9.20
2022-08-30T01:45:58.914Z,9.60
2022-08-30T01:46:58.928Z,4.40
2022-08-30T01:47:59.870Z,5.50
2022-08-30T01:48:58.859Z,7.60
2022-08-30T01:49:58.858Z,8.00
2022-08-30T01:50:58.851Z,8.80
2022-08-30T01:52:01.095Z,8.30
2022-08-30T01:52:58.869Z,8.00
2022-08-30T01:53:58.817Z,7.00
2022-08-30T01:54:58.801Z,10.60
2022-08-30T01:55:58.803Z,6.10
2022-08-30T01:56:58.790Z,10.30
2022-08-30T01:57:58.768Z,8.50
2022-08-30T01:59:02.615Z,8.20
2022-08-30T01:59:58.752Z,6.10
2022-08-30T02:00:58.772Z,7.50
2022-08-30T02:01:58.735Z,9.00
2022-08-30T02:02:58.722Z,5.30
2022-08-30T02:03:58.797Z,9.20
2022-08-30T02:04:58.741Z,9.10
2022-08-30T02:05:58.695Z,6.00
2022-08-30T02:06:58.669Z,8.10
2022-08-30T02:07:58.683Z,8.20
2022-08-30T02:08:58.644Z,6.70
2022-08-30T02:09:58.643Z,5.40
2022-08-30T02:10:58.625Z,7.30
2022-08-30T02:11:58.626Z,7.40
2022-08-30T02:12:58.634Z,7.90
2022-08-30T02:13:58.626Z,6.90
2022-08-30T02:14:58.593Z,6.70
2022-08-30T02:15:58.574Z,7.70
2022-08-30T02:16:58.616Z,8.80
2022-08-30T02:17:58.577Z,6.30
2022-08-30T02:18:58.536Z,9.70
2022-08-30T02:19:58.527Z,8.80
2022-08-30T02:20:58.521Z,8.00
2022-08-30T02:21:58.508Z,10.40
2022-08-30T02:23:01.166Z,7.90
2022-08-30T02:23:58.538Z,9.80
2022-08-30T02:24:58.469Z,5.80
2022-08-30T02:25:58.470Z,9.30
2022-08-30T02:26:58.478Z,8.60
2022-08-30T02:27:58.472Z,7.00
2022-08-30T02:28:59.098Z,6.90
2022-08-30T02:29:58.419Z,6.80
2022-08-30T02:30:58.473Z,8.20
2022-08-30T02:31:58.400Z,10.80
2022-08-30T02:32:58.399Z,7.80
2022-08-30T02:33:58.409Z,6.80
2022-08-30T02:34:58.421Z,11.60
2022-08-30T02:35:58.402Z,9.10
2022-08-30T02:36:58.341Z,8.60
2022-08-30T02:37:58.351Z,7.00
2022-08-30T02:38:58.323Z,9.70
2022-08-30T02:39:58.372Z,8.20
2022-08-30T02:40:58.303Z,6.50
2022-08-30T02:41:58.293Z,9.40
2022-08-30T02:42:58.284Z,6.20
2022-08-30T02:43:58.273Z,12.10
2022-08-30T02:44:58.254Z,8.70
2022-08-30T02:45:58.291Z,6.40
2022-08-30T02:46:58.294Z,8.30
2022-08-30T02:47:58.235Z,7.00
2022-08-30T02:49:00.306Z,7.00
2022-08-30T02:49:58.214Z,6.00
2022-08-30T02:50:58.198Z,8.10
2022-08-30T02:51:58.205Z,9.60
2022-08-30T02:52:58.185Z,7.70
2022-08-30T02:53:58.186Z,6.90
2022-08-30T02:54:58.145Z,9.80
2022-08-30T02:55:58.178Z,15.10
2022-08-30T02:56:58.146Z,8.30
2022-08-30T02:57:58.126Z,8.00
2022-08-30T02:58:58.106Z,9.00
2022-08-30T02:59:58.111Z,8.00
2022-08-30T03:00:58.148Z,8.20
2022-08-30T03:01:58.098Z,7.10
2022-08-30T03:02:58.089Z,7.30
2022-08-30T03:03:58.069Z,7.50
2022-08-30T03:04:58.105Z,7.70
2022-08-30T03:05:58.044Z,6.50
2022-08-30T03:06:58.028Z,8.30
2022-08-30T03:07:58.009Z,7.40
2022-08-30T03:08:57.989Z,10.00
2022-08-30T03:09:57.999Z,7.60
2022-08-30T03:10:57.980Z,8.10
2022-08-30T03:11:57.991Z,7.00
2022-08-30T03:12:57.951Z,6.80
2022-08-30T03:13:57.952Z,7.20
2022-08-30T03:14:57.930Z,8.40
2022-08-30T03:15:57.924Z,6.20
2022-08-30T03:16:57.966Z,6.90
2022-08-30T03:17:57.959Z,6.60
2022-08-30T03:18:57.892Z,10.30
2022-08-30T03:19:57.881Z,10.00
2022-08-30T03:20:57.863Z,6.40
2022-08-30T03:21:57.882Z,6.50
2022-08-30T03:22:57.843Z,7.00
2022-08-30T03:23:57.837Z,8.40
2022-08-30T03:24:57.817Z,7.90
2022-08-30T03:25:57.804Z,7.40
2022-08-30T03:26:57.814Z,9.20
2022-08-30T03:27:57.786Z,10.40
2022-08-30T03:28:57.766Z,7.80
2022-08-30T03:29:57.803Z,9.20
2022-08-30T03:30:57.758Z,8.10
2022-08-30T03:31:57.833Z,8.00
2022-08-30T03:32:57.736Z,8.10
2022-08-30T03:33:57.716Z,9.50
2022-08-30T03:34:57.706Z,9.10
2022-08-30T03:35:57.705Z,8.90
2022-08-30T03:36:57.700Z,10.00
2022-08-30T03:37:57.708Z,9.60
2022-08-30T03:38:57.658Z,7.70
2022-08-30T03:39:57.682Z,10.50
2022-08-30T03:40:57.645Z,9.50
2022-08-30T03:41:57.640Z,10.90
2022-08-30T03:42:57.619Z,8.50
2022-08-30T03:43:59.877Z,8.50
2022-08-30T03:44:57.590Z,8.00
2022-08-30T03:45:57.637Z,8.30
2022-08-30T03:46:57.598Z,8.40
2022-08-30T03:47:57.601Z,7.50
2022-08-30T03:48:57.550Z,9.10
2022-08-30T03:49:57.558Z,11.70
2022-08-30T03:50:57.530Z,7.70
2022-08-30T03:51:57.520Z,8.30
2022-08-30T03:52:57.531Z,6.60
2022-08-30T03:53:57.511Z,10.70
2022-08-30T03:54:57.482Z,8.60
2022-08-30T03:55:57.482Z,9.30
2022-08-30T03:56:57.461Z,6.30
2022-08-30T03:57:57.475Z,6.90
2022-08-30T03:58:57.443Z,8.60
2022-08-30T03:59:57.438Z,8.80
2022-08-30T04:00:57.440Z,7.90
2022-08-30T04:01:57.451Z,8.90
2022-08-30T04:02:57.407Z,11.50
2022-08-30T04:03:57.415Z,8.30
2022-08-30T04:04:57.403Z,12.10
2022-08-30T04:05:57.395Z,9.20
2022-08-30T04:06:57.354Z,7.60
2022-08-30T04:07:57.354Z,7.00
2022-08-30T04:08:57.334Z,8.00
2022-08-30T04:09:57.326Z,8.10
2022-08-30T04:10:57.306Z,5.60
2022-08-30T04:11:57.298Z,6.90
2022-08-30T04:12:57.296Z,7.50
2022-08-30T04:13:57.278Z,6.70
2022-08-30T04:14:57.265Z,8.90
2022-08-30T04:15:57.269Z,7.40
2022-08-30T04:16:57.248Z,6.90
2022-08-30T04:17:57.247Z,8.00
2022-08-30T04:18:57.217Z,8.60
2022-08-30T04:19:57.219Z,8.20
2022-08-30T04:20:57.200Z,11.20
2022-08-30T04:21:57.207Z,6.40
2022-08-30T04:22:57.169Z,7.00
2022-08-30T04:23:57.168Z,7.10
2022-08-30T04:24:57.146Z,8.90
2022-08-30T04:25:57.150Z,10.70
2022-08-30T04:26:57.151Z,9.80
2022-08-30T04:27:57.120Z,12.30
2022-08-30T04:28:57.114Z,8.30
2022-08-30T04:29:57.103Z,10.90
2022-08-30T04:30:57.084Z,10.10
2022-08-30T04:31:57.174Z,13.40
2022-08-30T04:32:58.897Z,9.90
2022-08-30T04:33:57.052Z,6.80
2022-08-30T04:34:57.040Z,7.90
2022-08-30T04:35:57.073Z,11.90
2022-08-30T04:36:57.021Z,10.30
2022-08-30T04:37:57.013Z,11.40
2022-08-30T04:38:57.013Z,9.80
2022-08-30T04:39:57.070Z,12.40
2022-08-30T04:40:57.040Z,13.00
2022-08-30T04:41:56.984Z,8.50
2022-08-30T04:42:56.963Z,9.10
2022-08-30T04:43:56.982Z,9.00
2022-08-30T04:44:57.154Z,7.70
2022-08-30T04:45:57.006Z,11.00
2022-08-30T04:46:56.917Z,8.80
2022-08-30T04:47:57.238Z,10.50
2022-08-30T04:48:56.875Z,11.30
2022-08-30T04:49:56.882Z,9.50
2022-08-30T04:50:56.864Z,9.60
2022-08-30T04:51:56.864Z,6.80
2022-08-30T04:52:56.847Z,13.70
2022-08-30T04:53:56.894Z,9.20
2022-08-30T04:54:56.826Z,10.60
2022-08-30T04:55:56.816Z,8.10
2022-08-30T04:56:56.868Z,8.60
2022-08-30T04:57:56.795Z,8.50
2022-08-30T04:58:56.867Z,11.10
2022-08-30T04:59:56.768Z,13.30
2022-08-30T05:00:56.794Z,9.20
2022-08-30T05:01:56.770Z,12.00
2022-08-30T05:02:56.738Z,12.20
2022-08-30T05:03:56.718Z,11.60
2022-08-30T05:04:56.723Z,9.80
2022-08-30T05:05:56.690Z,9.30
2022-08-30T05:06:56.688Z,8.80
2022-08-30T05:07:56.680Z,10.70
2022-08-30T05:08:56.667Z,9.90
2022-08-30T05:09:56.650Z,11.60
2022-08-30T05:10:56.641Z,12.80
2022-08-30T05:11:56.759Z,11.00
2022-08-30T05:12:56.630Z,10.20
2022-08-30T05:13:56.620Z,8.10
2022-08-30T05:14:56.611Z,12.20
2022-08-30T05:15:56.630Z,8.60
2022-08-30T05:16:56.573Z,11.40
2022-08-30T05:17:56.573Z,12.60
2022-08-30T05:18:56.552Z,10.70
2022-08-30T05:19:56.539Z,11.50
2022-08-30T05:20:56.534Z,11.80
2022-08-30T05:21:56.515Z,11.10
2022-08-30T05:22:56.523Z,17.30
2022-08-30T05:23:56.502Z,15.60
2022-08-30T05:24:56.493Z,18.50
2022-08-30T05:25:56.473Z,14.80
2022-08-30T05:26:56.465Z,19.50
2022-08-30T05:27:56.453Z,22.00
2022-08-30T05:28:56.443Z,13.40
2022-08-30T05:29:56.437Z,16.10
2022-08-30T05:30:56.423Z,21.30
2022-08-30T05:31:56.428Z,16.10
2022-08-30T05:32:56.407Z,21.60
2022-08-30T05:33:56.436Z,15.10
2022-08-30T05:34:56.377Z,16.40
2022-08-30T05:35:56.366Z,19.30
2022-08-30T05:36:56.367Z,16.40
2022-08-30T05:37:56.356Z,18.00
2022-08-30T05:38:56.335Z,22.70
2022-08-30T05:39:56.333Z,17.00
2022-08-30T05:40:56.308Z,27.60
2022-08-30T05:41:56.307Z,20.20
2022-08-30T05:42:56.308Z,16.20
2022-08-30T05:43:56.291Z,23.40
2022-08-30T05:44:56.259Z,24.80
2022-08-30T05:45:56.259Z,28.90
2022-08-30T05:46:56.239Z,25.20
2022-08-30T05:47:56.289Z,21.10
2022-08-30T05:48:56.220Z,28.90
2022-08-30T05:49:56.213Z,22.30
2022-08-30T05:50:56.201Z,19.20
2022-08-30T05:51:56.190Z,27.10
2022-08-30T05:52:56.201Z,31.80
2022-08-30T05:53:56.171Z,40.70
2022-08-30T05:54:56.151Z,35.90
2022-08-30T05:55:56.150Z,28.50
2022-08-30T05:56:56.166Z,30.30
2022-08-30T05:57:56.124Z,34.90
2022-08-30T05:58:56.113Z,31.20
2022-08-30T05:59:56.106Z,28.60
2022-08-30T06:00:56.094Z,31.60
2022-08-30T06:01:56.132Z,28.70
2022-08-30T06:02:56.151Z,22.70
2022-08-30T06:03:58.379Z,23.40
2022-08-30T06:04:56.052Z,33.20
2022-08-30T06:05:56.047Z,44.30
2022-08-30T06:06:56.032Z,26.70
2022-08-30T06:07:56.016Z,52.30
2022-08-30T06:08:56.005Z,34.00
2022-08-30T06:09:55.994Z,41.20
2022-08-30T06:10:55.986Z,42.90
2022-08-30T06:11:55.986Z,41.30
2022-08-30T06:12:55.961Z,42.40
2022-08-30T06:13:55.946Z,38.60
2022-08-30T06:14:55.937Z,37.70
2022-08-30T06:15:56.018Z,77.60
2022-08-30T06:16:55.957Z,116.30
2022-08-30T06:17:55.910Z,131.20
2022-08-30T06:18:55.901Z,64.40
2022-08-30T06:19:55.888Z,48.90
2022-08-30T06:20:55.895Z,52.20
2022-08-30T06:21:55.878Z,47.30
2022-08-30T06:22:55.847Z,60.10
2022-08-30T06:23:55.891Z,65.50
2022-08-30T06:24:58.005Z,52.80
2022-08-30T06:25:55.823Z,45.70
2022-08-30T06:26:55.848Z,51.40
2022-08-30T06:27:56.597Z,70.70
2022-08-30T06:28:55.811Z,98.30
2022-08-30T06:29:55.771Z,111.70
2022-08-30T06:30:55.776Z,88.40
2022-08-30T06:31:55.772Z,80.30
2022-08-30T06:32:55.732Z,81.90
2022-08-30T06:33:55.732Z,65.60
2022-08-30T06:34:55.714Z,63.90
2022-08-30T06:36:00.445Z,65.90
2022-08-30T06:36:56.703Z,55.40
2022-08-30T06:37:55.692Z,34.10
2022-08-30T06:38:55.674Z,26.00
2022-08-30T06:39:55.664Z,16.10
2022-08-30T06:40:55.657Z,18.40
2022-08-30T06:41:55.657Z,12.90
2022-08-30T06:42:55.626Z,7.30
2022-08-30T06:43:55.633Z,12.20
2022-08-30T06:44:55.616Z,10.40
2022-08-30T06:45:55.597Z,12.00
2022-08-30T06:46:55.651Z,12.50
2022-08-30T06:47:55.632Z,11.80
2022-08-30T06:48:56.177Z,8.60
2022-08-30T06:49:55.586Z,11.60
2022-08-30T06:50:55.557Z,11.90
2022-08-30T06:51:55.540Z,10.80
2022-08-30T06:52:55.550Z,12.60
2022-08-30T06:53:55.521Z,9.90
2022-08-30T06:54:55.496Z,8.90
2022-08-30T06:55:55.500Z,10.60
2022-08-30T06:56:58.609Z,7.50
2022-08-30T06:57:55.472Z,11.50
2022-08-30T06:58:55.461Z,8.50
2022-08-30T06:59:57.289Z,7.60
2022-08-30T07:00:55.433Z,8.00
2022-08-30T07:01:55.520Z,10.30
2022-08-30T07:02:55.514Z,10.90
2022-08-30T07:03:55.418Z,10.00
2022-08-30T07:04:55.394Z,9.10
2022-08-30T07:05:55.396Z,6.70
2022-08-30T07:06:55.386Z,5.70
2022-08-30T07:07:55.363Z,5.60
2022-08-30T07:08:56.343Z,7.80
2022-08-30T07:09:55.336Z,8.00
2022-08-30T07:10:55.327Z,6.10
2022-08-30T07:11:55.329Z,5.80
2022-08-30T07:12:55.308Z,9.00
2022-08-30T07:13:55.310Z,9.80
2022-08-30T07:14:55.291Z,7.40
2022-08-30T07:15:55.324Z,6.10
2022-08-30T07:16:55.269Z,6.50
2022-08-30T07:17:55.262Z,9.10
2022-08-30T07:18:55.245Z,7.30
2022-08-30T07:19:55.235Z,5.80
2022-08-30T07:20:55.216Z,9.30
2022-08-30T07:21:55.212Z,8.10
2022-08-30T07:22:55.189Z,7.40
2022-08-30T07:23:55.191Z,9.50
2022-08-30T07:24:55.164Z,5.70
2022-08-30T07:25:55.176Z,8.50
2022-08-30T07:26:55.155Z,5.80
2022-08-30T07:27:55.144Z,9.50
2022-08-30T07:28:56.198Z,7.80
2022-08-30T07:29:55.127Z,7.20
2022-08-30T07:30:55.106Z,8.10
2022-08-30T07:31:55.117Z,5.90
2022-08-30T07:32:55.077Z,7.00
2022-08-30T07:33:55.076Z,6.60
2022-08-30T07:34:55.058Z,10.20
2022-08-30T07:35:55.129Z,5.10
2022-08-30T07:36:55.039Z,4.70
2022-08-30T07:37:55.051Z,6.40
2022-08-30T07:38:55.030Z,8.40
2022-08-30T07:39:55.020Z,7.80
2022-08-30T07:40:55.020Z,8.10
2022-08-30T07:41:54.992Z,5.60
2022-08-30T07:42:54.972Z,7.60
2022-08-30T07:43:54.973Z,6.50
2022-08-30T07:44:56.946Z,6.70
2022-08-30T07:45:55.108Z,6.90
2022-08-30T07:46:55.069Z,7.70
2022-08-30T07:47:54.935Z,7.80
2022-08-30T07:48:54.916Z,6.40
2022-08-30T07:49:54.906Z,9.20
2022-08-30T07:50:58.251Z,9.10
2022-08-30T07:51:55.886Z,4.70
2022-08-30T07:52:54.878Z,9.90
2022-08-30T07:53:54.867Z,5.30
2022-08-30T07:54:54.848Z,9.10
2022-08-30T07:55:54.873Z,5.40
2022-08-30T07:56:54.829Z,8.60
2022-08-30T07:57:54.831Z,7.00
2022-08-30T07:58:54.813Z,11.00
2022-08-30T07:59:54.803Z,9.30
2022-08-30T08:00:54.800Z,10.40
2022-08-30T08:01:54.818Z,10.00
2022-08-30T08:02:54.826Z,7.50
2022-08-30T08:03:54.757Z,10.20
2022-08-30T08:04:54.744Z,12.80
2022-08-30T08:05:54.742Z,9.00
2022-08-30T08:06:54.722Z,7.00
2022-08-30T08:07:54.723Z,6.20
2022-08-30T08:08:54.704Z,5.40
2022-08-30T08:09:54.724Z,7.80
2022-08-30T08:10:54.703Z,9.70
2022-08-30T08:11:54.834Z,6.40
2022-08-30T08:12:54.668Z,10.10
2022-08-30T08:13:54.679Z,8.40
2022-08-30T08:14:54.637Z,6.00
2022-08-30T08:15:54.674Z,7.50
2022-08-30T08:16:54.739Z,10.10
2022-08-30T08:17:54.598Z,7.60
2022-08-30T08:18:54.597Z,6.50
2022-08-30T08:19:54.581Z,8.10
2022-08-30T08:20:54.596Z,10.80
2022-08-30T08:22:15.289Z,5.80
2022-08-30T08:22:55.561Z,5.90
2022-08-30T08:23:54.543Z,8.60
2022-08-30T08:24:54.560Z,8.10
2022-08-30T08:25:54.591Z,7.60
2022-08-30T08:26:54.513Z,12.10
2022-08-30T08:27:54.525Z,8.40
2022-08-30T08:28:54.493Z,9.20
2022-08-30T08:29:54.474Z,6.80
2022-08-30T08:30:54.532Z,6.90
2022-08-30T08:31:54.455Z,6.90
2022-08-30T08:32:54.454Z,6.80
2022-08-30T08:33:54.461Z,6.40
2022-08-30T08:34:54.428Z,8.60
2022-08-30T08:35:54.426Z,7.40
2022-08-30T08:36:54.396Z,9.20
2022-08-30T08:37:54.388Z,7.50
2022-08-30T08:38:54.392Z,9.60
2022-08-30T08:39:54.372Z,10.70
2022-08-30T08:40:54.451Z,10.40
2022-08-30T08:41:54.350Z,7.50
2022-08-30T08:42:54.339Z,13.60
2022-08-30T08:43:54.339Z,8.30
2022-08-30T08:44:55.633Z,9.00
2022-08-30T08:45:54.365Z,11.10
2022-08-30T08:46:54.315Z,15.10
2022-08-30T08:47:54.296Z,9.80
2022-08-30T08:49:01.418Z,12.10
2022-08-30T08:49:55.263Z,11.20
2022-08-30T08:50:54.268Z,9.50
2022-08-30T08:51:54.235Z,14.90
2022-08-30T08:52:54.235Z,12.50
2022-08-30T08:53:54.215Z,12.80
2022-08-30T08:54:54.215Z,6.40
2022-08-30T08:55:54.210Z,8.80
2022-08-30T08:56:54.188Z,10.60
2022-08-30T08:57:54.180Z,5.80
2022-08-30T08:58:54.196Z,11.00
2022-08-30T08:59:54.169Z,7.60
2022-08-30T09:00:54.189Z,17.70
2022-08-30T09:01:54.217Z,8.30
2022-08-30T09:02:56.014Z,8.20
2022-08-30T09:03:54.111Z,8.50
2022-08-30T09:04:54.158Z,6.40
2022-08-30T09:05:54.113Z,6.90
2022-08-30T09:06:54.082Z,11.10
2022-08-30T09:07:54.069Z,9.00
2022-08-30T09:08:54.063Z,8.80
2022-08-30T09:09:54.042Z,8.60
2022-08-30T09:10:54.073Z,6.10
2022-08-30T09:11:54.026Z,6.30
2022-08-30T09:12:59.347Z,8.40
2022-08-30T09:13:55.004Z,7.40
2022-08-30T09:14:55.663Z,5.90
2022-08-30T09:15:55.105Z,5.90
2022-08-30T09:16:53.986Z,8.30
2022-08-30T09:17:53.960Z,7.00
2022-08-30T09:18:54.889Z,9.10
2022-08-30T09:19:53.951Z,8.30
2022-08-30T09:20:53.948Z,11.60
2022-08-30T09:21:53.928Z,10.10
2022-08-30T09:22:53.919Z,10.00
2022-08-30T09:23:53.908Z,9.50
2022-08-30T09:24:53.900Z,9.00
2022-08-30T09:25:53.901Z,13.00
2022-08-30T09:26:53.871Z,10.50
2022-08-30T09:27:53.859Z,9.80
2022-08-30T09:28:53.962Z,7.20
2022-08-30T09:29:53.846Z,9.00
2022-08-30T09:30:53.869Z,9.00
2022-08-30T09:32:10.043Z,10.20
2022-08-30T09:32:54.804Z,9.20
2022-08-30T09:33:53.785Z,9.00
2022-08-30T09:34:53.794Z,8.90
2022-08-30T09:35:54.111Z,8.80
2022-08-30T09:36:53.784Z,12.50
2022-08-30T09:37:53.759Z,9.70
2022-08-30T09:38:53.756Z,12.00
2022-08-30T09:39:53.755Z,8.00
2022-08-30T09:40:53.739Z,11.60
2022-08-30T09:41:53.718Z,8.10
2022-08-30T09:42:53.709Z,9.50
2022-08-30T09:43:53.699Z,10.00
2022-08-30T09:44:53.690Z,10.70
2022-08-30T09:45:53.729Z,13.20
2022-08-30T09:46:53.673Z,9.90
2022-08-30T09:47:53.662Z,9.40
2022-08-30T09:48:53.663Z,9.10
2022-08-30T09:49:53.634Z,7.70
2022-08-30T09:50:53.654Z,9.90
2022-08-30T09:51:53.614Z,11.30
2022-08-30T09:52:55.525Z,24.60
2022-08-30T09:54:16.611Z,13.90
2022-08-30T09:54:54.594Z,10.80
2022-08-30T09:55:53.596Z,10.10
2022-08-30T09:56:53.575Z,14.30
2022-08-30T09:57:53.556Z,11.70
2022-08-30T09:58:53.545Z,10.40
2022-08-30T09:59:53.540Z,7.40
2022-08-30T10:00:53.605Z,10.10
2022-08-30T10:01:53.519Z,8.90
2022-08-30T10:02:53.521Z,10.70
2022-08-30T10:03:53.510Z,7.70
2022-08-30T10:04:53.492Z,11.70
2022-08-30T10:05:53.591Z,9.90
2022-08-30T10:06:53.522Z,11.30
2022-08-30T10:07:53.740Z,10.50
2022-08-30T10:08:53.442Z,9.20
2022-08-30T10:09:53.442Z,7.80
2022-08-30T10:10:53.461Z,14.30
2022-08-30T10:11:53.424Z,5.50
2022-08-30T10:12:53.405Z,7.30
2022-08-30T10:13:53.418Z,8.50
2022-08-30T10:14:53.395Z,7.10
2022-08-30T10:15:53.376Z,12.20
2022-08-30T10:16:53.427Z,9.80
2022-08-30T10:17:53.368Z,6.50
2022-08-30T10:18:53.347Z,4.80
2022-08-30T10:19:53.349Z,5.90
2022-08-30T10:20:53.347Z,9.70
2022-08-30T10:21:53.330Z,6.60
2022-08-30T10:22:53.341Z,6.10
2022-08-30T10:23:53.309Z,5.70
2022-08-30T10:24:53.292Z,11.30
2022-08-30T10:25:53.312Z,7.00
2022-08-30T10:26:53.271Z,9.30
2022-08-30T10:27:53.262Z,11.30
2022-08-30T10:28:53.252Z,6.80
2022-08-30T10:29:53.274Z,4.00
2022-08-30T10:30:53.235Z,6.80
2022-08-30T10:31:53.236Z,4.40
2022-08-30T10:32:53.217Z,7.20
2022-08-30T10:33:53.205Z,7.10
2022-08-30T10:34:53.216Z,7.80
2022-08-30T10:35:53.234Z,8.10
2022-08-30T10:36:53.168Z,5.00
2022-08-30T10:37:53.167Z,6.80
2022-08-30T10:38:53.150Z,6.30
2022-08-30T10:39:53.139Z,4.60
2022-08-30T10:40:53.139Z,6.40
2022-08-30T10:41:53.130Z,6.50
2022-08-30T10:42:53.121Z,7.60
2022-08-30T10:43:53.127Z,7.40
2022-08-30T10:44:53.128Z,7.80
2022-08-30T10:45:53.092Z,6.30
2022-08-30T10:46:53.075Z,7.20
2022-08-30T10:47:53.063Z,8.20
2022-08-30T10:48:53.042Z,6.20
2022-08-30T10:49:53.043Z,7.30
2022-08-30T10:50:53.043Z,5.20
2022-08-30T10:51:53.027Z,4.10
2022-08-30T10:52:53.015Z,6.80
2022-08-30T10:53:53.025Z,6.80
2022-08-30T10:54:52.986Z,7.80
2022-08-30T10:55:53.000Z,4.70
2022-08-30T10:56:53.010Z,8.10
2022-08-30T10:57:52.966Z,8.10
2022-08-30T10:58:52.948Z,7.50
2022-08-30T10:59:52.961Z,7.30
2022-08-30T11:00:53.049Z,5.90
2022-08-30T11:01:52.956Z,5.30
2022-08-30T11:02:52.929Z,5.00
2022-08-30T11:03:52.910Z,5.80
2022-08-30T11:04:52.911Z,6.30
2022-08-30T11:05:52.951Z,8.90
2022-08-30T11:06:54.012Z,5.20
2022-08-30T11:07:52.883Z,5.50
2022-08-30T11:08:52.865Z,4.50
2022-08-30T11:09:52.846Z,9.20
2022-08-30T11:10:52.943Z,7.80
2022-08-30T11:11:52.835Z,5.10
2022-08-30T11:12:52.825Z,5.10
2022-08-30T11:13:57.002Z,4.30
2022-08-30T11:14:52.803Z,4.70
2022-08-30T11:15:52.805Z,7.10
2022-08-30T11:16:52.789Z,7.70
2022-08-30T11:17:52.787Z,10.10
2022-08-30T11:18:52.795Z,6.80
2022-08-30T11:19:52.772Z,7.20
2022-08-30T11:20:52.759Z,10.30
2022-08-30T11:21:52.729Z,6.00
2022-08-30T11:22:52.780Z,7.00
2022-08-30T11:23:52.721Z,5.20
2022-08-30T11:24:52.714Z,4.90
2022-08-30T11:25:53.370Z,6.20
2022-08-30T11:26:53.700Z,5.70
2022-08-30T11:27:52.684Z,7.20
2022-08-30T11:28:52.782Z,13.50
2022-08-30T11:29:52.663Z,5.70
2022-08-30T11:30:52.676Z,5.40
2022-08-30T11:31:52.644Z,7.00
2022-08-30T11:32:52.644Z,7.10
2022-08-30T11:33:52.655Z,9.00
2022-08-30T11:34:52.625Z,12.80
2022-08-30T11:35:52.625Z,10.20
2022-08-30T11:36:52.605Z,6.10
2022-08-30T11:37:52.595Z,9.00
2022-08-30T11:38:52.628Z,6.10
2022-08-30T11:39:52.589Z,8.80
2022-08-30T11:40:52.588Z,8.00
2022-08-30T11:41:52.569Z,9.80
2022-08-30T11:42:52.548Z,8.60
2022-08-30T11:43:53.238Z,8.20
2022-08-30T11:44:52.549Z,5.30
2022-08-30T11:45:52.719Z,8.90
2022-08-30T11:46:52.542Z,7.50
2022-08-30T11:47:52.510Z,6.60
2022-08-30T11:48:54.508Z,8.90
2022-08-30T11:49:52.494Z,6.90
2022-08-30T11:50:52.502Z,8.40
2022-08-30T11:52:08.559Z,8.70
2022-08-30T11:52:53.532Z,6.30
2022-08-30T11:53:52.469Z,5.10
2022-08-30T11:54:53.404Z,9.40
2022-08-30T11:55:52.459Z,12.00
2022-08-30T11:56:52.444Z,6.50
2022-08-30T11:57:52.430Z,5.50
2022-08-30T11:58:52.468Z,6.50
2022-08-30T11:59:52.434Z,7.40
2022-08-30T12:00:52.914Z,7.60
2022-08-30T12:01:52.457Z,8.60
2022-08-30T12:02:52.486Z,9.40
2022-08-30T12:03:52.367Z,5.80
2022-08-30T12:04:52.367Z,9.80
2022-08-30T12:05:52.369Z,6.20
2022-08-30T12:06:52.341Z,5.90
2022-08-30T12:07:52.353Z,6.30
2022-08-30T12:08:56.521Z,10.10
2022-08-30T12:09:53.345Z,8.40
2022-08-30T12:10:52.330Z,9.30
2022-08-30T12:11:52.310Z,7.50
2022-08-30T12:12:52.292Z,8.70
2022-08-30T12:13:52.329Z,6.10
2022-08-30T12:14:52.281Z,8.00
2022-08-30T12:15:52.339Z,7.70
2022-08-30T12:16:52.310Z,5.70
2022-08-30T12:17:52.363Z,5.50
2022-08-30T12:18:52.263Z,7.50
2022-08-30T12:19:52.246Z,7.80
2022-08-30T12:20:52.215Z,6.00
2022-08-30T12:21:52.202Z,6.30
2022-08-30T12:22:52.344Z,5.40
2022-08-30T12:23:52.186Z,8.30
2022-08-30T12:24:52.186Z,4.20
2022-08-30T12:25:52.166Z,6.00
2022-08-30T12:26:52.209Z,4.60
2022-08-30T12:27:52.147Z,7.90
2022-08-30T12:28:52.163Z,5.90
2022-08-30T12:29:52.142Z,5.20
2022-08-30T12:30:52.123Z,5.10
2022-08-30T12:31:52.147Z,7.30
2022-08-30T12:32:52.111Z,6.70
2022-08-30T12:33:52.092Z,4.60
2022-08-30T12:34:52.090Z,8.20
2022-08-30T12:35:52.083Z,4.90
2022-08-30T12:36:52.062Z,8.70
2022-08-30T12:37:52.064Z,7.90
2022-08-30T12:38:52.056Z,6.70
2022-08-30T12:39:52.696Z,8.40
2022-08-30T12:40:52.034Z,8.00
2022-08-30T12:41:52.015Z,9.30
2022-08-30T12:42:52.009Z,9.70
2022-08-30T12:43:52.009Z,7.10
2022-08-30T12:44:52.000Z,8.70
2022-08-30T12:45:52.037Z,5.20
2022-08-30T12:46:53.957Z,6.20
2022-08-30T12:47:52.950Z,7.00
2022-08-30T12:48:51.939Z,6.80
2022-08-30T12:49:51.949Z,4.30
2022-08-30T12:50:52.082Z,7.70
2022-08-30T12:51:51.940Z,8.40
2022-08-30T12:52:51.911Z,6.00
2022-08-30T12:53:51.891Z,6.40
2022-08-30T12:54:51.900Z,8.70
2022-08-30T12:55:51.882Z,7.20
2022-08-30T12:56:54.150Z,7.50
2022-08-30T12:57:51.855Z,5.10
2022-08-30T12:58:52.851Z,6.00
2022-08-30T12:59:56.745Z,5.00
2022-08-30T13:00:52.919Z,3.60
2022-08-30T13:01:51.949Z,7.00
2022-08-30T13:02:51.836Z,6.90
2022-08-30T13:03:51.804Z,11.70
2022-08-30T13:04:51.827Z,6.80
2022-08-30T13:05:53.196Z,5.90
2022-08-30T13:06:51.777Z,8.60
2022-08-30T13:07:51.769Z,7.60
2022-08-30T13:08:51.809Z,8.90
2022-08-30T13:09:51.752Z,7.40
2022-08-30T13:10:51.740Z,6.90